sensor_id;sensor_type;location;lat;lon;timestamp;pressure;altitude;pressure_sealevel;temperature;humidity
76285;BME280;65096;50.998;7.098;2023-05-23T00:01:58;101053.88;;;16.21;57.79
76285;BME280;65096;50.998;7.098;2023-05-23T00:04:25;101048.69;;;16.20;57.63
76285;BME280;65096;50.998;7.098;2023-05-23T00:06:53;101057.34;;;16.19;57.70
76285;BME280;65096;50.998;7.098;2023-05-23T00:09:20;101053.94;;;16.15;57.85
76285;BME280;65096;50.998;7.098;2023-05-23T00:11:48;101048.78;;;16.09;58.49
76285;BME280;65096;50.998;7.098;2023-05-23T00:14:15;101052.31;;;16.04;58.20
76285;BME280;65096;50.998;7.098;2023-05-23T00:16:43;101037.63;;;15.98;58.88
76285;BME280;65096;50.998;7.098;2023-05-23T00:19:11;101040.25;;;15.97;58.57
76285;BME280;65096;50.998;7.098;2023-05-23T00:21:39;101045.47;;;15.94;58.66
76285;BME280;65096;50.998;7.098;2023-05-23T00:24:06;101040.31;;;15.92;58.61
76285;BME280;65096;50.998;7.098;2023-05-23T00:26:34;101036.00;;;15.91;58.88
76285;BME280;65096;50.998;7.098;2023-05-23T00:29:02;101045.53;;;15.91;58.97
76285;BME280;65096;50.998;7.098;2023-05-23T00:31:28;101059.41;;;15.88;58.72
76285;BME280;65096;50.998;7.098;2023-05-23T00:33:55;101058.56;;;15.86;58.61
76285;BME280;65096;50.998;7.098;2023-05-23T00:36:22;101061.19;;;15.86;58.35
76285;BME280;65096;50.998;7.098;2023-05-23T00:38:49;101069.00;;;15.83;58.80
76285;BME280;65096;50.998;7.098;2023-05-23T00:41:17;101056.94;;;15.76;58.75
76285;BME280;65096;50.998;7.098;2023-05-23T00:43:45;101069.97;;;15.72;59.08
76285;BME280;65096;50.998;7.098;2023-05-23T00:46:13;101056.94;;;15.75;59.07
76285;BME280;65096;50.998;7.098;2023-05-23T00:48:40;101063.91;;;15.71;59.22
76285;BME280;65096;50.998;7.098;2023-05-23T00:51:07;101063.88;;;15.74;59.26
76285;BME280;65096;50.998;7.098;2023-05-23T00:53:34;101063.03;;;15.71;59.04
76285;BME280;65096;50.998;7.098;2023-05-23T00:56:01;101060.44;;;15.69;59.72
76285;BME280;65096;50.998;7.098;2023-05-23T00:58:28;101066.56;;;15.65;59.66
76285;BME280;65096;50.998;7.098;2023-05-23T01:00:55;101061.41;;;15.62;59.42
76285;BME280;65096;50.998;7.098;2023-05-23T01:03:23;101063.13;;;15.63;59.51
76285;BME280;65096;50.998;7.098;2023-05-23T01:05:53;101064.03;;;15.59;59.46
76285;BME280;65096;50.998;7.098;2023-05-23T01:08:20;101048.47;;;15.52;59.40
76285;BME280;65096;50.998;7.098;2023-05-23T01:10:47;101064.84;;;15.63;59.70
76285;BME280;65096;50.998;7.098;2023-05-23T01:13:21;101065.75;;;15.59;59.45
76285;BME280;65096;50.998;7.098;2023-05-23T01:15:52;101058.88;;;15.52;59.77
76285;BME280;65096;50.998;7.098;2023-05-23T01:18:27;101077.06;;;15.56;59.79
76285;BME280;65096;50.998;7.098;2023-05-23T01:20:56;101077.91;;;15.54;59.89
76285;BME280;65096;50.998;7.098;2023-05-23T01:24:01;101070.97;;;15.57;60.27
76285;BME280;65096;50.998;7.098;2023-05-23T01:26:40;101076.16;;;15.57;59.67
76285;BME280;65096;50.998;7.098;2023-05-23T01:29:11;101078.81;;;15.53;60.16
76285;BME280;65096;50.998;7.098;2023-05-23T01:31:42;101078.81;;;15.53;59.70
76285;BME280;65096;50.998;7.098;2023-05-23T01:34:09;101072.75;;;15.52;59.72
76285;BME280;65096;50.998;7.098;2023-05-23T01:36:39;101063.25;;;15.48;59.98
76285;BME280;65096;50.998;7.098;2023-05-23T01:39:06;101063.25;;;15.48;60.13
76285;BME280;65096;50.998;7.098;2023-05-23T01:41:34;101068.47;;;15.44;60.04
76285;BME280;65096;50.998;7.098;2023-05-23T01:44:02;101049.44;;;15.36;60.07
76285;BME280;65096;50.998;7.098;2023-05-23T01:46:31;101069.34;;;15.43;60.29
76285;BME280;65096;50.998;7.098;2023-05-23T01:49:00;101076.28;;;15.36;60.28
76285;BME280;65096;50.998;7.098;2023-05-23T01:51:28;101082.41;;;15.32;60.08
76285;BME280;65096;50.998;7.098;2023-05-23T01:53:55;101085.00;;;15.34;60.38
76285;BME280;65096;50.998;7.098;2023-05-23T01:56:22;101090.22;;;15.31;59.49
76285;BME280;65096;50.998;7.098;2023-05-23T01:58:51;101055.78;;;15.02;59.37
76285;BME280;65096;50.998;7.098;2023-05-23T02:01:18;101103.22;;;15.25;59.25
76285;BME280;65096;50.998;7.098;2023-05-23T02:03:47;101091.09;;;15.27;59.80
76285;BME280;65096;50.998;7.098;2023-05-23T02:06:14;101099.78;;;15.26;59.55
76285;BME280;65096;50.998;7.098;2023-05-23T02:08:40;101106.69;;;15.25;59.15
76285;BME280;65096;50.998;7.098;2023-05-23T02:11:07;101110.16;;;15.21;59.26
76285;BME280;65096;50.998;7.098;2023-05-23T02:13:34;101109.34;;;15.13;59.02
76285;BME280;65096;50.998;7.098;2023-05-23T02:16:01;101101.59;;;15.10;58.90
76285;BME280;65096;50.998;7.098;2023-05-23T02:18:28;101101.56;;;15.13;58.77
76285;BME280;65096;50.998;7.098;2023-05-23T02:20:56;101100.72;;;15.11;59.00
76285;BME280;65096;50.998;7.098;2023-05-23T02:23:23;101109.38;;;15.15;58.81
76285;BME280;65096;50.998;7.098;2023-05-23T02:25:49;101104.19;;;15.15;58.64
76285;BME280;65096;50.998;7.098;2023-05-23T02:28:16;101100.75;;;15.10;58.64
76285;BME280;65096;50.998;7.098;2023-05-23T02:30:44;101099.84;;;15.12;58.98
76285;BME280;65096;50.998;7.098;2023-05-23T02:33:11;101108.50;;;15.14;58.44
76285;BME280;65096;50.998;7.098;2023-05-23T02:35:41;101105.91;;;15.11;59.21
76285;BME280;65096;50.998;7.098;2023-05-23T02:38:09;101109.38;;;15.10;59.08
76285;BME280;65096;50.998;7.098;2023-05-23T02:40:35;101114.56;;;15.09;58.25
76285;BME280;65096;50.998;7.098;2023-05-23T02:43:02;101114.56;;;15.09;58.56
76285;BME280;65096;50.998;7.098;2023-05-23T02:45:29;101117.19;;;15.06;58.45
76285;BME280;65096;50.998;7.098;2023-05-23T02:47:57;101112.88;;;15.08;58.54
76285;BME280;65096;50.998;7.098;2023-05-23T02:50:24;101115.44;;;15.09;58.59
76285;BME280;65096;50.998;7.098;2023-05-23T02:52:50;101116.31;;;15.13;58.45
76285;BME280;65096;50.998;7.098;2023-05-23T02:55:18;101107.66;;;15.08;58.43
76285;BME280;65096;50.998;7.098;2023-05-23T02:57:45;101111.13;;;15.05;58.93
76285;BME280;65096;50.998;7.098;2023-05-23T03:00:13;101111.13;;;15.08;58.73
76285;BME280;65096;50.998;7.098;2023-05-23T03:02:39;101108.56;;;15.07;58.79
76285;BME280;65096;50.998;7.098;2023-05-23T03:05:07;101100.75;;;15.05;58.78
76285;BME280;65096;50.998;7.098;2023-05-23T03:07:34;101111.19;;;14.96;59.35
76285;BME280;65096;50.998;7.098;2023-05-23T03:10:01;101106.91;;;14.92;59.01
76285;BME280;65096;50.998;7.098;2023-05-23T03:12:29;101113.84;;;14.89;59.24
76285;BME280;65096;50.998;7.098;2023-05-23T03:14:55;101117.28;;;14.92;59.11
76285;BME280;65096;50.998;7.098;2023-05-23T03:17:23;101114.69;;;14.88;59.54
76285;BME280;65096;50.998;7.098;2023-05-23T03:19:50;101117.31;;;14.84;59.84
76285;BME280;65096;50.998;7.098;2023-05-23T03:22:17;101114.69;;;14.86;59.38
76285;BME280;65096;50.998;7.098;2023-05-23T03:24:44;101111.28;;;14.83;59.73
76285;BME280;65096;50.998;7.098;2023-05-23T03:27:10;101116.44;;;14.86;59.80
76285;BME280;65096;50.998;7.098;2023-05-23T03:29:38;101122.50;;;14.84;59.65
76285;BME280;65096;50.998;7.098;2023-05-23T03:32:05;101126.88;;;14.81;60.26
76285;BME280;65096;50.998;7.098;2023-05-23T03:34:33;101120.78;;;14.82;59.88
76285;BME280;65096;50.998;7.098;2023-05-23T03:37:01;101127.72;;;14.77;60.00
76285;BME280;65096;50.998;7.098;2023-05-23T03:39:28;101128.59;;;14.77;60.23
76285;BME280;65096;50.998;7.098;2023-05-23T03:41:55;101128.63;;;14.73;60.24
76285;BME280;65096;50.998;7.098;2023-05-23T03:44:21;101128.63;;;14.76;59.96
76285;BME280;65096;50.998;7.098;2023-05-23T03:46:49;101132.06;;;14.75;59.95
76285;BME280;65096;50.998;7.098;2023-05-23T03:49:16;101132.06;;;14.72;60.76
76285;BME280;65096;50.998;7.098;2023-05-23T03:51:43;101126.91;;;14.64;60.59
76285;BME280;65096;50.998;7.098;2023-05-23T03:54:09;101130.38;;;14.69;60.72
76285;BME280;65096;50.998;7.098;2023-05-23T03:56:36;101129.47;;;14.73;60.93
76285;BME280;65096;50.998;7.098;2023-05-23T03:59:03;101126.00;;;14.77;60.56
76285;BME280;65096;50.998;7.098;2023-05-23T04:01:29;101118.25;;;14.73;60.92
76285;BME280;65096;50.998;7.098;2023-05-23T04:03:57;101132.94;;;14.75;61.26
76285;BME280;65096;50.998;7.098;2023-05-23T04:06:24;101133.81;;;14.73;61.23
76285;BME280;65096;50.998;7.098;2023-05-23T04:08:51;101130.34;;;14.72;60.91
76285;BME280;65096;50.998;7.098;2023-05-23T04:11:18;101134.69;;;14.69;61.02
76285;BME280;65096;50.998;7.098;2023-05-23T04:13:46;101142.47;;;14.72;61.21
76285;BME280;65096;50.998;7.098;2023-05-23T04:16:13;101136.41;;;14.71;61.16
76285;BME280;65096;50.998;7.098;2023-05-23T04:18:39;101145.06;;;14.70;61.27
76285;BME280;65096;50.998;7.098;2023-05-23T04:21:09;101142.47;;;14.69;61.23
76285;BME280;65096;50.998;7.098;2023-05-23T04:23:35;101137.31;;;14.63;61.35
76285;BME280;65096;50.998;7.098;2023-05-23T04:26:02;101155.44;;;14.69;61.43
76285;BME280;65096;50.998;7.098;2023-05-23T04:28:30;101155.44;;;14.69;61.36
76285;BME280;65096;50.998;7.098;2023-05-23T04:30:56;101162.38;;;14.67;61.15
76285;BME280;65096;50.998;7.098;2023-05-23T04:33:23;101160.66;;;14.63;61.52
76285;BME280;65096;50.998;7.098;2023-05-23T04:35:50;101162.38;;;14.65;61.17
76285;BME280;65096;50.998;7.098;2023-05-23T04:38:18;101160.66;;;14.66;61.32
76285;BME280;65096;50.998;7.098;2023-05-23T04:40:46;101164.13;;;14.66;61.46
76285;BME280;65096;50.998;7.098;2023-05-23T04:43:13;101160.69;;;14.58;60.94
76285;BME280;65096;50.998;7.098;2023-05-23T04:45:42;101158.94;;;14.57;61.08
76285;BME280;65096;50.998;7.098;2023-05-23T04:48:09;101161.53;;;14.59;61.28
76285;BME280;65096;50.998;7.098;2023-05-23T04:50:37;101167.63;;;14.52;61.80
76285;BME280;65096;50.998;7.098;2023-05-23T04:53:04;101169.34;;;14.50;62.05
76285;BME280;65096;50.998;7.098;2023-05-23T04:55:32;101177.13;;;14.48;62.30
76285;BME280;65096;50.998;7.098;2023-05-23T04:57:59;101184.91;;;14.51;62.00
76285;BME280;65096;50.998;7.098;2023-05-23T05:00:26;101184.00;;;14.48;62.13
76285;BME280;65096;50.998;7.098;2023-05-23T05:02:54;101177.97;;;14.43;61.79
76285;BME280;65096;50.998;7.098;2023-05-23T05:05:21;101181.44;;;14.48;62.49
76285;BME280;65096;50.998;7.098;2023-05-23T05:07:47;101182.31;;;14.45;62.40
76285;BME280;65096;50.998;7.098;2023-05-23T05:10:14;101184.03;;;14.46;62.71
76285;BME280;65096;50.998;7.098;2023-05-23T05:12:43;101178.00;;;14.50;62.11
76285;BME280;65096;50.998;7.098;2023-05-23T05:15:11;101184.03;;;14.54;62.44
76285;BME280;65096;50.998;7.098;2023-05-23T05:17:38;101191.84;;;14.57;62.27
76285;BME280;65096;50.998;7.098;2023-05-23T05:20:06;101195.28;;;14.56;62.23
76285;BME280;65096;50.998;7.098;2023-05-23T05:22:33;101189.25;;;14.57;62.09
76285;BME280;65096;50.998;7.098;2023-05-23T05:25:01;101191.84;;;14.58;62.01
76285;BME280;65096;50.998;7.098;2023-05-23T05:27:28;101184.88;;;14.59;62.47
76285;BME280;65096;50.998;7.098;2023-05-23T05:29:56;101190.97;;;14.58;62.82
76285;BME280;65096;50.998;7.098;2023-05-23T05:32:28;101196.16;;;14.55;62.57
76285;BME280;65096;50.998;7.098;2023-05-23T05:34:58;101194.44;;;14.55;62.51
76285;BME280;65096;50.998;7.098;2023-05-23T05:37:24;101203.94;;;14.56;62.74
76285;BME280;65096;50.998;7.098;2023-05-23T05:39:51;101193.56;;;14.58;62.55
76285;BME280;65096;50.998;7.098;2023-05-23T05:42:18;101204.81;;;14.60;62.33
76285;BME280;65096;50.998;7.098;2023-05-23T05:44:45;101209.97;;;14.54;63.15
76285;BME280;65096;50.998;7.098;2023-05-23T05:47:13;101205.66;;;14.54;62.30
76285;BME280;65096;50.998;7.098;2023-05-23T05:49:40;101190.13;;;14.50;62.44
76285;BME280;65096;50.998;7.098;2023-05-23T05:52:07;101204.78;;;14.46;63.01
76285;BME280;65096;50.998;7.098;2023-05-23T05:54:34;101207.41;;;14.51;62.83
76285;BME280;65096;50.998;7.098;2023-05-23T05:57:01;101200.47;;;14.45;62.58
76285;BME280;65096;50.998;7.098;2023-05-23T05:59:28;101209.09;;;14.44;62.38
76285;BME280;65096;50.998;7.098;2023-05-23T06:01:55;101212.59;;;14.39;63.17
76285;BME280;65096;50.998;7.098;2023-05-23T06:04:23;101212.59;;;14.49;62.63
76285;BME280;65096;50.998;7.098;2023-05-23T06:06:50;101217.75;;;14.45;62.59
76285;BME280;65096;50.998;7.098;2023-05-23T06:09:17;101216.03;;;14.33;63.08
76285;BME280;65096;50.998;7.098;2023-05-23T06:11:43;101228.16;;;14.39;62.66
76285;BME280;65096;50.998;7.098;2023-05-23T06:14:10;101226.44;;;14.38;62.62
76285;BME280;65096;50.998;7.098;2023-05-23T06:16:37;101219.50;;;14.32;62.93
76285;BME280;65096;50.998;7.098;2023-05-23T06:19:03;101216.94;;;14.28;63.30
76285;BME280;65096;50.998;7.098;2023-05-23T06:21:31;101222.09;;;14.31;62.88
76285;BME280;65096;50.998;7.098;2023-05-23T06:23:58;101230.78;;;14.30;62.65
76285;BME280;65096;50.998;7.098;2023-05-23T06:26:24;101229.91;;;14.29;63.02
76285;BME280;65096;50.998;7.098;2023-05-23T06:28:51;101230.75;;;14.28;63.61
76285;BME280;65096;50.998;7.098;2023-05-23T06:31:18;101235.94;;;14.28;63.15
76285;BME280;65096;50.998;7.098;2023-05-23T06:33:45;101230.75;;;14.19;63.75
76285;BME280;65096;50.998;7.098;2023-05-23T06:36:11;101234.22;;;14.23;63.66
76285;BME280;65096;50.998;7.098;2023-05-23T06:38:39;101229.03;;;14.26;63.54
76285;BME280;65096;50.998;7.098;2023-05-23T06:41:06;101228.16;;;14.28;63.07
76285;BME280;65096;50.998;7.098;2023-05-23T06:43:33;101233.34;;;14.19;63.95
76285;BME280;65096;50.998;7.098;2023-05-23T06:45:59;101231.63;;;14.27;63.50
76285;BME280;65096;50.998;7.098;2023-05-23T06:48:26;101240.25;;;14.32;63.15
76285;BME280;65096;50.998;7.098;2023-05-23T06:50:53;101241.13;;;14.33;62.96
76285;BME280;65096;50.998;7.098;2023-05-23T06:53:20;101242.84;;;14.34;63.28
76285;BME280;65096;50.998;7.098;2023-05-23T06:55:48;101241.97;;;14.32;63.02
76285;BME280;65096;50.998;7.098;2023-05-23T06:58:14;101237.69;;;14.28;63.30
76285;BME280;65096;50.998;7.098;2023-05-23T07:00:41;101245.47;;;14.32;63.22
76285;BME280;65096;50.998;7.098;2023-05-23T07:03:08;101254.09;;;14.36;63.09
76285;BME280;65096;50.998;7.098;2023-05-23T07:05:35;101247.16;;;14.36;62.99
76285;BME280;65096;50.998;7.098;2023-05-23T07:08:02;101255.81;;;14.35;62.93
76285;BME280;65096;50.998;7.098;2023-05-23T07:10:28;101250.66;;;14.32;63.33
76285;BME280;65096;50.998;7.098;2023-05-23T07:12:56;101259.28;;;14.37;63.21
76285;BME280;65096;50.998;7.098;2023-05-23T07:15:23;101258.41;;;14.37;63.18
76285;BME280;65096;50.998;7.098;2023-05-23T07:17:50;101260.16;;;14.32;63.23
76285;BME280;65096;50.998;7.098;2023-05-23T07:20:16;101267.91;;;14.36;63.38
76285;BME280;65096;50.998;7.098;2023-05-23T07:22:43;101278.31;;;14.33;63.10
76285;BME280;65096;50.998;7.098;2023-05-23T07:25:10;101279.19;;;14.31;63.08
76285;BME280;65096;50.998;7.098;2023-05-23T07:27:37;101272.25;;;14.24;62.87
76285;BME280;65096;50.998;7.098;2023-05-23T07:30:07;101285.22;;;14.25;62.79
76285;BME280;65096;50.998;7.098;2023-05-23T07:32:34;101283.50;;;14.24;62.96
76285;BME280;65096;50.998;7.098;2023-05-23T07:35:01;101281.78;;;14.23;62.51
76285;BME280;65096;50.998;7.098;2023-05-23T07:37:28;101281.78;;;14.23;62.40
76285;BME280;65096;50.998;7.098;2023-05-23T07:39:54;101279.19;;;14.28;62.30
76285;BME280;65096;50.998;7.098;2023-05-23T07:42:21;101281.78;;;14.26;61.86
76285;BME280;65096;50.998;7.098;2023-05-23T07:44:48;101286.97;;;14.26;61.93
76285;BME280;65096;50.998;7.098;2023-05-23T07:47:16;101286.97;;;14.29;62.34
76285;BME280;65096;50.998;7.098;2023-05-23T07:49:43;101293.88;;;14.33;62.29
76285;BME280;65096;50.998;7.098;2023-05-23T07:52:10;101259.28;;;14.12;62.44
76285;BME280;65096;50.998;7.098;2023-05-23T07:54:36;101299.06;;;14.24;62.41
76285;BME280;65096;50.998;7.098;2023-05-23T07:57:04;101299.94;;;14.28;62.12
76285;BME280;65096;50.998;7.098;2023-05-23T07:59:31;101299.94;;;14.32;62.14
76285;BME280;65096;50.998;7.098;2023-05-23T08:01:58;101302.53;;;14.35;62.06
76285;BME280;65096;50.998;7.098;2023-05-23T08:04:26;101308.59;;;14.30;61.63
76285;BME280;65096;50.998;7.098;2023-05-23T08:06:53;101295.63;;;14.31;61.59
76285;BME280;65096;50.998;7.098;2023-05-23T08:09:21;101301.66;;;14.33;61.22
76285;BME280;65096;50.998;7.098;2023-05-23T08:11:48;101300.81;;;14.33;61.18
76285;BME280;65096;50.998;7.098;2023-05-23T08:14:15;101299.94;;;14.32;61.01
76285;BME280;65096;50.998;7.098;2023-05-23T08:16:41;101303.38;;;14.27;60.79
76285;BME280;65096;50.998;7.098;2023-05-23T08:19:08;101312.03;;;14.32;61.39
76285;BME280;65096;50.998;7.098;2023-05-23T08:21:36;101310.31;;;14.34;61.28
76285;BME280;65096;50.998;7.098;2023-05-23T08:24:03;101314.66;;;14.38;61.28
76285;BME280;65096;50.998;7.098;2023-05-23T08:26:30;101321.56;;;14.39;61.05
76285;BME280;65096;50.998;7.098;2023-05-23T08:28:59;101321.56;;;14.42;61.04
76285;BME280;65096;50.998;7.098;2023-05-23T08:31:26;101319.84;;;14.42;61.18
76285;BME280;65096;50.998;7.098;2023-05-23T08:33:53;101325.03;;;14.44;60.94
76285;BME280;65096;50.998;7.098;2023-05-23T08:36:20;101332.81;;;14.42;60.96
76285;BME280;65096;50.998;7.098;2023-05-23T08:38:48;101334.53;;;14.39;60.59
76285;BME280;65096;50.998;7.098;2023-05-23T08:41:19;101328.47;;;14.40;60.65
76285;BME280;65096;50.998;7.098;2023-05-23T08:43:46;101332.81;;;14.38;60.81
76285;BME280;65096;50.998;7.098;2023-05-23T08:46:14;101334.53;;;14.37;60.52
76285;BME280;65096;50.998;7.098;2023-05-23T08:48:42;101338.00;;;14.41;61.11
76285;BME280;65096;50.998;7.098;2023-05-23T08:51:09;101331.94;;;14.34;60.95
76285;BME280;65096;50.998;7.098;2023-05-23T08:53:40;101344.03;;;14.32;61.50
76285;BME280;65096;50.998;7.098;2023-05-23T08:56:10;101350.09;;;14.33;60.73
76285;BME280;65096;50.998;7.098;2023-05-23T08:58:38;101341.44;;;14.26;60.73
76285;BME280;65096;50.998;7.098;2023-05-23T09:01:06;101314.59;;;14.09;60.91
76285;BME280;65096;50.998;7.098;2023-05-23T09:03:34;101354.41;;;14.25;60.77
76285;BME280;65096;50.998;7.098;2023-05-23T09:06:02;101353.53;;;14.29;60.88
76285;BME280;65096;50.998;7.098;2023-05-23T09:08:29;101360.47;;;14.33;60.56
76285;BME280;65096;50.998;7.098;2023-05-23T09:10:55;101363.09;;;14.33;60.54
76285;BME280;65096;50.998;7.098;2023-05-23T09:13:24;101357.88;;;14.36;60.42
76285;BME280;65096;50.998;7.098;2023-05-23T09:15:56;101356.13;;;14.36;60.54
76285;BME280;65096;50.998;7.098;2023-05-23T09:18:24;101362.19;;;14.38;60.40
76285;BME280;65096;50.998;7.098;2023-05-23T09:20:51;101366.56;;;14.39;60.29
76285;BME280;65096;50.998;7.098;2023-05-23T09:23:18;101363.09;;;14.36;60.81
76285;BME280;65096;50.998;7.098;2023-05-23T09:25:46;101369.09;;;14.29;60.19
76285;BME280;65096;50.998;7.098;2023-05-23T09:28:13;101369.09;;;14.24;60.55
76285;BME280;65096;50.998;7.098;2023-05-23T09:30:41;101370.00;;;14.31;60.66
76285;BME280;65096;50.998;7.098;2023-05-23T09:33:08;101378.66;;;14.31;60.18
76285;BME280;65096;50.998;7.098;2023-05-23T09:35:43;101385.56;;;14.28;60.61
76285;BME280;65096;50.998;7.098;2023-05-23T09:38:10;101383.84;;;14.30;59.86
76285;BME280;65096;50.998;7.098;2023-05-23T09:40:37;101383.84;;;14.34;60.14
76285;BME280;65096;50.998;7.098;2023-05-23T09:43:04;101383.84;;;14.30;59.78
76285;BME280;65096;50.998;7.098;2023-05-23T09:45:32;101374.28;;;14.20;60.39
76285;BME280;65096;50.998;7.098;2023-05-23T09:48:00;101388.16;;;14.32;60.28
76285;BME280;65096;50.998;7.098;2023-05-23T09:50:30;101392.47;;;14.30;60.03
76285;BME280;65096;50.998;7.098;2023-05-23T09:52:57;101397.66;;;14.26;60.05
76285;BME280;65096;50.998;7.098;2023-05-23T09:55:25;101402.84;;;14.23;60.03
76285;BME280;65096;50.998;7.098;2023-05-23T09:57:53;101403.66;;;14.20;60.27
76285;BME280;65096;50.998;7.098;2023-05-23T10:00:22;101405.41;;;14.21;60.23
76285;BME280;65096;50.998;7.098;2023-05-23T10:03:04;101400.22;;;14.18;60.04
76285;BME280;65096;50.998;7.098;2023-05-23T10:05:39;101386.34;;;14.03;59.86
76285;BME280;65096;50.998;7.098;2023-05-23T10:08:09;101395.88;;;14.05;60.46
76285;BME280;65096;50.998;7.098;2023-05-23T10:14:01;101413.22;;;14.24;59.67
76285;BME280;65096;50.998;7.098;2023-05-23T10:16:36;101412.34;;;14.27;59.56
76285;BME280;65096;50.998;7.098;2023-05-23T10:19:12;101414.03;;;14.14;59.74
76285;BME280;65096;50.998;7.098;2023-05-23T10:21:44;101412.34;;;14.27;59.90
76285;BME280;65096;50.998;7.098;2023-05-23T10:24:15;101409.75;;;14.27;59.88
76285;BME280;65096;50.998;7.098;2023-05-23T10:26:43;101407.19;;;14.31;59.38
76285;BME280;65096;50.998;7.098;2023-05-23T10:29:10;101420.16;;;14.37;59.78
76285;BME280;65096;50.998;7.098;2023-05-23T10:31:37;101408.06;;;14.45;59.28
76285;BME280;65096;50.998;7.098;2023-05-23T10:34:12;101408.97;;;14.68;59.38
76285;BME280;65096;50.998;7.098;2023-05-23T10:36:49;101405.50;;;14.86;58.40
76285;BME280;65096;50.998;7.098;2023-05-23T10:39:26;101413.31;;;14.88;57.86
76285;BME280;65096;50.998;7.098;2023-05-23T10:42:01;101410.72;;;14.95;58.02
76285;BME280;65096;50.998;7.098;2023-05-23T10:44:29;101410.69;;;15.28;57.79
76285;BME280;65096;50.998;7.098;2023-05-23T10:46:57;101411.53;;;15.44;57.59
76285;BME280;65096;50.998;7.098;2023-05-23T10:49:41;101421.00;;;15.69;57.30
76285;BME280;65096;50.998;7.098;2023-05-23T10:52:09;101424.41;;;15.84;56.16
76285;BME280;65096;50.998;7.098;2023-05-23T10:54:41;101435.66;;;15.92;56.13
76285;BME280;65096;50.998;7.098;2023-05-23T10:57:09;101433.00;;;16.00;54.53
76285;BME280;65096;50.998;7.098;2023-05-23T10:59:38;101428.66;;;16.05;54.28
76285;BME280;65096;50.998;7.098;2023-05-23T11:02:11;101437.25;;;16.23;54.71
76285;BME280;65096;50.998;7.098;2023-05-23T11:04:41;101429.41;;;16.36;53.85
76285;BME280;65096;50.998;7.098;2023-05-23T11:07:29;101437.28;;;16.27;52.98
76285;BME280;65096;50.998;7.098;2023-05-23T11:10:02;101439.84;;;16.19;52.33
76285;BME280;65096;50.998;7.098;2023-05-23T11:12:36;101440.81;;;16.07;52.62
76285;BME280;65096;50.998;7.098;2023-05-23T11:15:18;101449.53;;;15.91;53.75
76285;BME280;65096;50.998;7.098;2023-05-23T11:17:49;101457.34;;;15.85;54.03
76285;BME280;65096;50.998;7.098;2023-05-23T11:20:18;101461.69;;;15.88;53.76
76285;BME280;65096;50.998;7.098;2023-05-23T11:22:53;101463.38;;;15.95;54.32
76285;BME280;65096;50.998;7.098;2023-05-23T11:25:20;101459.06;;;15.94;52.48
76285;BME280;65096;50.998;7.098;2023-05-23T11:28:05;101463.47;;;15.77;53.83
76285;BME280;65096;50.998;7.098;2023-05-23T11:30:31;101467.75;;;15.84;53.36
76285;BME280;65096;50.998;7.098;2023-05-23T11:32:58;101471.22;;;15.89;52.99
76285;BME280;65096;50.998;7.098;2023-05-23T11:35:29;101481.66;;;15.78;52.51
76285;BME280;65096;50.998;7.098;2023-05-23T11:37:56;101488.63;;;15.70;52.58
76285;BME280;65096;50.998;7.098;2023-05-23T11:40:27;101493.81;;;15.60;53.12
76285;BME280;65096;50.998;7.098;2023-05-23T11:42:55;101490.38;;;15.58;54.04
76285;BME280;65096;50.998;7.098;2023-05-23T11:45:22;101495.56;;;15.52;53.65
76285;BME280;65096;50.998;7.098;2023-05-23T11:47:49;101491.22;;;15.60;54.11
76285;BME280;65096;50.998;7.098;2023-05-23T11:50:16;101486.88;;;15.68;53.85
76285;BME280;65096;50.998;7.098;2023-05-23T11:52:49;101488.59;;;15.75;53.72
76285;BME280;65096;50.998;7.098;2023-05-23T11:55:17;101485.13;;;15.74;53.68
76285;BME280;65096;50.998;7.098;2023-05-23T11:57:44;101500.72;;;15.85;52.90
76285;BME280;65096;50.998;7.098;2023-05-23T12:00:12;101484.22;;;15.90;51.55
76285;BME280;65096;50.998;7.098;2023-05-23T12:02:39;101472.97;;;15.90;51.62
76285;BME280;65096;50.998;7.098;2023-05-23T12:05:07;101469.50;;;15.85;52.84
76285;BME280;65096;50.998;7.098;2023-05-23T12:07:34;101469.44;;;15.95;52.10
76285;BME280;65096;50.998;7.098;2023-05-23T12:10:03;101467.69;;;16.02;51.88
76285;BME280;65096;50.998;7.098;2023-05-23T12:12:31;101463.31;;;16.13;51.54
76285;BME280;65096;50.998;7.098;2023-05-23T12:14:57;101465.03;;;16.26;52.14
76285;BME280;65096;50.998;7.098;2023-05-23T12:17:24;101452.00;;;16.28;50.02
76285;BME280;65096;50.998;7.098;2023-05-23T12:19:51;101466.72;;;16.30;50.76
76285;BME280;65096;50.998;7.098;2023-05-23T12:22:22;101446.78;;;16.28;50.75
76285;BME280;65096;50.998;7.098;2023-05-23T12:24:52;101467.59;;;16.32;51.18
76285;BME280;65096;50.998;7.098;2023-05-23T12:27:26;101466.72;;;16.30;50.93
76285;BME280;65096;50.998;7.098;2023-05-23T12:30:03;101466.72;;;16.30;50.89
76285;BME280;65096;50.998;7.098;2023-05-23T12:32:30;101474.56;;;16.32;50.11
76285;BME280;65096;50.998;7.098;2023-05-23T12:34:57;101473.72;;;16.25;48.43
76285;BME280;65096;50.998;7.098;2023-05-23T12:37:24;101470.25;;;16.18;51.11
76285;BME280;65096;50.998;7.098;2023-05-23T12:39:51;101471.09;;;16.14;50.16
76285;BME280;65096;50.998;7.098;2023-05-23T12:42:17;101471.09;;;16.16;50.06
76285;BME280;65096;50.998;7.098;2023-05-23T12:44:50;101468.53;;;16.08;49.84
76285;BME280;65096;50.998;7.098;2023-05-23T12:47:16;101468.53;;;16.10;50.03
76285;BME280;65096;50.998;7.098;2023-05-23T12:49:43;101473.72;;;16.10;48.55
76285;BME280;65096;50.998;7.098;2023-05-23T12:52:11;101467.66;;;16.11;49.30
76285;BME280;65096;50.998;7.098;2023-05-23T12:54:37;101471.09;;;16.17;50.03
76285;BME280;65096;50.998;7.098;2023-05-23T12:57:04;101471.09;;;16.23;49.52
76285;BME280;65096;50.998;7.098;2023-05-23T12:59:31;101467.63;;;16.20;49.32